Time;durP1;ratioP1;P1;durP2;ratioP2;P2;SDS_P1;SDS_P2;PMS_P1;PMS_P2;Temp;Humidity;BMP_temperature;BMP_pressure;BME280_temperature;BME280_humidity;BME280_pressure;Samples;Min_cycle;Max_cycle;Signal;HPM_P1;HPM_P2
2020/12/03 00:00:24;;;;;;;;;;;;;;;-2.57;100.00;95879.47;5057546;28;19953;-46
2020/12/03 00:02:51;;;;;;;;;;;;;;;-2.54;100.00;95866.41;5088985;28;20007;-46
2020/12/03 00:05:18;;;;;;;;;;;;;;;-2.52;100.00;95874.88;5045130;28;19968;-47
2020/12/03 00:07:45;;;;;;;;;;;;;;;-2.54;100.00;95873.31;5088000;28;20453;-47
2020/12/03 00:10:12;;;;;;;;;;;;;;;-2.58;100.00;95872.63;5052910;28;20334;-46
2020/12/03 00:12:39;;;;;;;;;;;;;;;-2.64;100.00;95873.78;5089018;28;20603;-46
2020/12/03 00:15:05;;;;;;;;;;;;;;;-2.61;100.00;95877.13;5065364;28;19945;-50
2020/12/03 00:17:32;;;;;;;;;;;;;;;-2.63;100.00;95872.03;5085404;28;20427;-51
2020/12/03 00:20:15;;;;;;;;;;;;;;;-2.54;100.00;95876.72;5087146;28;20986;-46
2020/12/03 00:22:42;;;;;;;;;;;;;;;-2.60;100.00;95882.19;5070833;28;19973;-45
2020/12/03 00:25:10;;;;;;;;;;;;;;;-2.52;100.00;95886.97;5080795;28;19959;-48
2020/12/03 00:27:37;;;;;;;;;;;;;;;-2.49;100.00;95889.38;5052079;28;19973;-46
2020/12/03 00:30:04;;;;;;;;;;;;;;;-2.48;100.00;95886.75;5089758;28;19995;-45
2020/12/03 00:32:31;;;;;;;;;;;;;;;-2.47;100.00;95883.22;5054165;28;20070;-48
2020/12/03 00:34:58;;;;;;;;;;;;;;;-2.51;100.00;95873.13;5079709;28;19961;-45
2020/12/03 00:37:25;;;;;;;;;;;;;;;-2.53;100.00;95870.63;5044183;28;19969;-53
2020/12/03 00:39:52;;;;;;;;;;;;;;;-2.56;100.00;95870.78;5083538;28;19981;-47
2020/12/03 00:42:19;;;;;;;;;;;;;;;-2.56;100.00;95864.81;5045994;28;20431;-52
2020/12/03 00:44:46;;;;;;;;;;;;;;;-2.52;100.00;95868.88;5087469;28;20221;-45
2020/12/03 00:47:13;;;;;;;;;;;;;;;-2.56;100.00;95877.72;5034797;28;20015;-50
2020/12/03 00:49:40;;;;;;;;;;;;;;;-2.50;100.00;95878.22;5081274;28;20046;-48
2020/12/03 00:52:06;;;;;;;;;;;;;;;-2.52;100.00;95874.88;5046820;28;19968;-46
2020/12/03 00:54:34;;;;;;;;;;;;;;;-2.55;100.00;95869.88;5060738;28;20003;-47
2020/12/03 00:57:02;;;;;;;;;;;;;;;-2.49;100.00;95869.56;5053552;28;20066;-47
2020/12/03 00:59:28;;;;;;;;;;;;;;;-2.51;100.00;95870.53;5083388;28;20057;-47
2020/12/03 01:01:56;;;;;;;;;;;;;;;-2.49;100.00;95879.06;5045354;28;19960;-47
2020/12/03 01:04:23;;;;;;;;;;;;;;;-2.45;100.00;95877.97;5083000;28;20032;-46
2020/12/03 01:06:50;;;;;;;;;;;;;;;-2.49;100.00;95876.47;5082787;28;19958;-48
2020/12/03 01:09:17;;;;;;;;;;;;;;;-2.48;100.00;95870.38;5054232;28;20363;-48
2020/12/03 01:11:44;;;;;;;;;;;;;;;-2.47;100.00;95875.50;5082381;28;19948;-45
2020/12/03 01:14:11;;;;;;;;;;;;;;;-2.44;100.00;95872.75;5054317;28;19968;-45
2020/12/03 01:16:38;;;;;;;;;;;;;;;-2.52;100.00;95871.47;5079298;28;20411;-47
2020/12/03 01:19:05;;;;;;;;;;;;;;;-2.47;100.00;95872.06;5049115;28;20045;-50
2020/12/03 01:21:31;;;;;;;;;;;;;;;-2.49;100.00;95872.13;5084435;28;19944;-46
2020/12/03 01:23:58;;;;;;;;;;;;;;;-2.40;100.00;95871.66;5046997;28;19982;-46
2020/12/03 01:26:25;;;;;;;;;;;;;;;-2.40;100.00;95863.09;5081646;28;20157;-46
2020/12/03 01:28:52;;;;;;;;;;;;;;;-2.38;100.00;95871.56;5054013;28;20020;-50
2020/12/03 01:31:19;;;;;;;;;;;;;;;-2.43;100.00;95860.66;5083876;28;20471;-44
2020/12/03 01:33:45;;;;;;;;;;;;;;;-2.41;100.00;95857.09;5050702;28;19964;-51
2020/12/03 01:36:13;;;;;;;;;;;;;;;-2.41;100.00;95854.53;5087993;28;20416;-47
2020/12/03 01:38:39;;;;;;;;;;;;;;;-2.37;100.00;95855.19;5047517;28;24746;-47
2020/12/03 01:41:06;;;;;;;;;;;;;;;-2.34;100.00;95849.00;5083279;28;19961;-50
2020/12/03 01:43:58;;;;;;;;;;;;;;;-2.27;100.00;95855.50;5055128;28;20014;-47
2020/12/03 01:47:22;;;;;;;;;;;;;;;-2.31;100.00;95835.94;5083369;28;19972;-48
2020/12/03 01:49:50;;;;;;;;;;;;;;;-2.32;100.00;95842.03;5057215;28;20040;-47
2020/12/03 01:52:17;;;;;;;;;;;;;;;-2.40;100.00;95845.84;5075097;28;20457;-49
2020/12/03 01:54:43;;;;;;;;;;;;;;;-2.37;100.00;95844.88;5049008;28;20010;-47
2020/12/03 01:57:24;;;;;;;;;;;;;;;-2.31;100.00;95844.50;5083208;28;19960;-46
2020/12/03 02:00:01;;;;;;;;;;;;;;;-2.31;100.00;95846.28;5044457;28;19969;-48
2020/12/03 02:02:39;;;;;;;;;;;;;;;-2.33;100.00;95842.94;5082456;28;20507;-49
2020/12/03 02:05:06;;;;;;;;;;;;;;;-2.39;100.00;95838.94;5054796;28;20437;-49
2020/12/03 02:07:33;;;;;;;;;;;;;;;-2.39;100.00;95841.53;5085589;28;19965;-49
2020/12/03 02:10:00;;;;;;;;;;;;;;;-2.37;100.00;95831.97;5054648;28;20037;-49
2020/12/03 02:12:27;;;;;;;;;;;;;;;-2.34;100.00;95841.25;5078374;28;19959;-46
2020/12/03 02:14:54;;;;;;;;;;;;;;;-2.29;100.00;95841.88;5051646;28;20300;-48
2020/12/03 02:17:21;;;;;;;;;;;;;;;-2.27;100.00;95832.28;5083781;28;20481;-46
2020/12/03 02:19:52;;;;;;;;;;;;;;;-2.37;100.00;95821.63;5081538;28;19964;-57
2020/12/03 02:22:20;;;;;;;;;;;;;;;-2.39;100.00;95826.03;5070727;28;19963;-47
2020/12/03 02:24:47;;;;;;;;;;;;;;;-2.45;100.00;95829.75;5078360;28;20458;-47
2020/12/03 02:27:14;;;;;;;;;;;;;;;-2.40;100.00;95835.53;5054331;28;19971;-50
2020/12/03 02:29:41;;;;;;;;;;;;;;;-2.41;100.00;95826.13;5081758;28;20009;-50
2020/12/03 02:32:08;;;;;;;;;;;;;;;-2.33;100.00;95833.47;5047465;28;20382;-46
2020/12/03 02:34:36;;;;;;;;;;;;;;;-2.44;100.00;95828.03;5084489;28;19957;-47
2020/12/03 02:37:04;;;;;;;;;;;;;;;-2.46;100.00;95822.09;5047725;28;20477;-46
2020/12/03 02:39:31;;;;;;;;;;;;;;;-2.40;100.00;95821.78;5075005;28;20052;-48
2020/12/03 02:41:58;;;;;;;;;;;;;;;-2.40;100.00;95820.03;5055383;28;19945;-46
2020/12/03 02:44:25;;;;;;;;;;;;;;;-2.43;100.00;95811.63;5081802;28;19970;-44
2020/12/03 02:46:52;;;;;;;;;;;;;;;-2.35;100.00;95806.88;5059778;28;20072;-47
2020/12/03 02:49:19;;;;;;;;;;;;;;;-2.26;100.00;95802.97;5083181;28;20067;-48
2020/12/03 02:51:47;;;;;;;;;;;;;;;-2.31;100.00;95794.63;5040996;28;20050;-47
2020/12/03 02:54:15;;;;;;;;;;;;;;;-2.20;100.00;95790.56;5085204;28;20393;-48
2020/12/03 02:56:42;;;;;;;;;;;;;;;-2.19;100.00;95797.38;5050685;28;20003;-47
2020/12/03 02:59:08;;;;;;;;;;;;;;;-2.19;100.00;95793.97;5079798;28;19972;-50
2020/12/03 03:01:35;;;;;;;;;;;;;;;-2.15;100.00;95779.97;5051131;28;20341;-46
2020/12/03 03:04:04;;;;;;;;;;;;;;;-2.23;100.00;95785.56;5078446;28;19989;-46
2020/12/03 03:06:30;;;;;;;;;;;;;;;-2.30;100.00;95791.97;5086088;28;20064;-45
2020/12/03 03:08:57;;;;;;;;;;;;;;;-2.26;100.00;95790.91;5050031;28;20418;-52
2020/12/03 03:11:25;;;;;;;;;;;;;;;-2.25;100.00;95797.72;5087988;28;19968;-49
2020/12/03 03:13:51;;;;;;;;;;;;;;;-2.24;100.00;95789.03;5054616;28;20417;-49
2020/12/03 03:16:18;;;;;;;;;;;;;;;-2.29;100.00;95790.22;5083999;28;19967;-49
2020/12/03 03:18:45;;;;;;;;;;;;;;;-2.33;100.00;95793.91;5060602;28;19965;-48
2020/12/03 03:21:11;;;;;;;;;;;;;;;-2.25;100.00;95794.31;5089010;28;20003;-46
2020/12/03 03:23:38;;;;;;;;;;;;;;;-2.22;100.00;95800.13;5051844;28;20053;-50
2020/12/03 03:26:05;;;;;;;;;;;;;;;-2.25;100.00;95784.81;5084193;28;20028;-47
2020/12/03 03:28:32;;;;;;;;;;;;;;;-2.15;100.00;95777.38;5047857;28;20368;-46
2020/12/03 03:30:59;;;;;;;;;;;;;;;-2.30;100.00;95767.91;5087347;28;20017;-48
2020/12/03 03:33:26;;;;;;;;;;;;;;;-2.22;100.00;95763.97;5056187;28;20032;-49
2020/12/03 03:35:53;;;;;;;;;;;;;;;-2.10;100.00;95757.28;5083241;28;19943;-49
2020/12/03 03:38:19;;;;;;;;;;;;;;;-2.12;100.00;95756.56;5054865;28;20049;-46
2020/12/03 03:40:46;;;;;;;;;;;;;;;-2.10;100.00;95749.53;5085590;28;20007;-46
2020/12/03 03:43:14;;;;;;;;;;;;;;;-2.16;100.00;95745.56;5050307;28;20333;-47
2020/12/03 03:45:41;;;;;;;;;;;;;;;-2.12;100.00;95746.22;5084031;28;19984;-47
2020/12/03 03:48:08;;;;;;;;;;;;;;;-2.17;100.00;95740.47;5087858;28;19972;-52
2020/12/03 03:50:35;;;;;;;;;;;;;;;-2.10;100.00;95740.97;5053633;28;19994;-53
2020/12/03 03:53:02;;;;;;;;;;;;;;;-2.16;100.00;95737.00;5079801;28;19959;-48
2020/12/03 03:55:29;;;;;;;;;;;;;;;-2.12;100.00;95751.41;5052855;28;19999;-50
2020/12/03 03:57:56;;;;;;;;;;;;;;;-2.18;100.00;95752.56;5084479;28;19980;-45
2020/12/03 04:00:23;;;;;;;;;;;;;;;-2.21;100.00;95746.72;5049344;28;19998;-46
2020/12/03 04:06:07;;;;;;;;;;;;;;;-2.22;100.00;95707.16;5053259;28;19977;-46
2020/12/03 04:08:34;;;;;;;;;;;;;;;-2.21;100.00;95719.16;5084751;28;19959;-47
2020/12/03 04:11:01;;;;;;;;;;;;;;;-2.18;100.00;95718.16;5055212;28;19961;-48
2020/12/03 04:13:27;;;;;;;;;;;;;;;-2.24;100.00;95709.00;5083225;28;19966;-47
2020/12/03 04:15:54;;;;;;;;;;;;;;;-2.18;100.00;95700.09;5056243;28;20367;-46
2020/12/03 04:18:26;;;;;;;;;;;;;;;-2.10;100.00;95704.81;5084199;28;19967;-46
2020/12/03 04:20:54;;;;;;;;;;;;;;;-2.12;100.00;95698.91;5034567;28;19945;-47
2020/12/03 04:23:21;;;;;;;;;;;;;;;-2.18;100.00;95692.34;5085782;28;19972;-49
2020/12/03 04:25:49;;;;;;;;;;;;;;;-2.06;100.00;95688.25;5048500;28;19991;-47
2020/12/03 04:28:16;;;;;;;;;;;;;;;-2.15;100.00;95685.25;5084267;28;19960;-46
2020/12/03 04:30:43;;;;;;;;;;;;;;;-2.08;100.00;95687.50;5055150;28;19955;-46
2020/12/03 04:33:10;;;;;;;;;;;;;;;-2.11;100.00;95685.91;5087917;28;19955;-48
2020/12/03 04:35:37;;;;;;;;;;;;;;;-2.12;100.00;95694.56;5044785;28;19957;-48
2020/12/03 04:38:04;;;;;;;;;;;;;;;-2.13;100.00;95689.47;5082354;28;20482;-47
2020/12/03 04:40:31;;;;;;;;;;;;;;;-2.07;100.00;95697.72;5050774;28;19966;-48
2020/12/03 04:42:58;;;;;;;;;;;;;;;-1.95;100.00;95707.38;5083342;28;19971;-48
2020/12/03 04:45:30;;;;;;;;;;;;;;;-1.88;100.00;95699.28;5081466;28;20039;-50
2020/12/03 04:48:02;;;;;;;;;;;;;;;-1.97;100.00;95698.88;5082520;28;20004;-49
2020/12/03 04:50:31;;;;;;;;;;;;;;;-1.98;100.00;95701.53;5078777;28;19955;-50
2020/12/03 04:53:00;;;;;;;;;;;;;;;-1.97;100.00;95695.44;5045170;28;19975;-46
2020/12/03 04:55:27;;;;;;;;;;;;;;;-1.99;100.00;95697.31;5084870;28;19969;-47
2020/12/03 04:57:58;;;;;;;;;;;;;;;-1.97;100.00;95693.69;5050472;28;20027;-46
2020/12/03 05:00:29;;;;;;;;;;;;;;;-1.91;100.00;95695.94;5081126;28;20672;-50
2020/12/03 05:03:04;;;;;;;;;;;;;;;-1.83;100.00;95703.25;5055361;28;19949;-49
2020/12/03 05:05:34;;;;;;;;;;;;;;;-2.04;100.00;95700.13;5081288;28;19965;-48
2020/12/03 05:08:03;;;;;;;;;;;;;;;-2.01;100.00;95684.47;5053672;28;20023;-47
2020/12/03 05:10:33;;;;;;;;;;;;;;;-1.97;100.00;95669.63;5081844;28;19959;-49
2020/12/03 05:13:00;;;;;;;;;;;;;;;-1.91;100.00;95664.94;5051110;28;20018;-46
2020/12/03 05:15:30;;;;;;;;;;;;;;;-1.92;100.00;95663.28;5084151;28;19950;-50
2020/12/03 05:18:02;;;;;;;;;;;;;;;-2.04;100.00;95661.38;5042463;28;19971;-46
2020/12/03 05:20:32;;;;;;;;;;;;;;;-1.97;100.00;95651.53;5085118;28;19973;-46
2020/12/03 05:23:03;;;;;;;;;;;;;;;-1.92;100.00;95647.78;5054162;28;19967;-47
2020/12/03 05:25:30;;;;;;;;;;;;;;;-1.86;100.00;95658.66;5078218;28;19965;-47
2020/12/03 05:27:59;;;;;;;;;;;;;;;-1.87;100.00;95638.91;5052376;28;20372;-48
2020/12/03 05:30:26;;;;;;;;;;;;;;;-1.84;100.00;95644.75;5082214;28;19950;-50
2020/12/03 05:32:53;;;;;;;;;;;;;;;-1.88;100.00;95658.75;5030064;28;19950;-46
2020/12/03 05:35:20;;;;;;;;;;;;;;;-1.97;100.00;95679.94;5066462;28;19991;-51
2020/12/03 05:37:47;;;;;;;;;;;;;;;-1.96;100.00;95687.63;5051774;28;19973;-45
2020/12/03 05:40:20;;;;;;;;;;;;;;;-1.86;100.00;95693.06;5083637;28;19964;-51
2020/12/03 05:42:47;;;;;;;;;;;;;;;-1.72;100.00;95689.69;5056006;28;19960;-56
2020/12/03 05:45:17;;;;;;;;;;;;;;;-1.74;100.00;95691.56;5085267;28;20373;-48
2020/12/03 05:47:45;;;;;;;;;;;;;;;-1.92;100.00;95689.13;5083344;28;20471;-47
2020/12/03 05:50:15;;;;;;;;;;;;;;;-2.01;100.00;95668.13;5050607;28;20279;-46
2020/12/03 05:52:43;;;;;;;;;;;;;;;-1.92;100.00;95657.28;5080417;28;19980;-48
2020/12/03 05:55:10;;;;;;;;;;;;;;;-1.98;100.00;95655.06;5045132;28;19956;-48
2020/12/03 05:57:39;;;;;;;;;;;;;;;-1.99;100.00;95661.16;5083218;28;20052;-47
2020/12/03 06:00:17;;;;;;;;;;;;;;;-1.83;100.00;95668.81;5057819;28;20456;-46
2020/12/03 06:02:49;;;;;;;;;;;;;;;-1.88;100.00;95668.28;5082205;28;19964;-50
2020/12/03 06:05:17;;;;;;;;;;;;;;;-1.91;100.00;95670.09;5046378;28;19963;-52
2020/12/03 06:07:52;;;;;;;;;;;;;;;-1.85;100.00;95665.50;5085081;28;20389;-46
2020/12/03 06:10:25;;;;;;;;;;;;;;;-1.80;100.00;95666.06;5046530;28;20456;-46
2020/12/03 06:13:08;;;;;;;;;;;;;;;-1.85;100.00;95674.09;5081754;28;20326;-46
2020/12/03 06:15:37;;;;;;;;;;;;;;;-1.82;100.00;95673.91;5051973;28;19978;-47
2020/12/03 06:18:24;;;;;;;;;;;;;;;-1.82;100.00;95666.16;5085447;28;19966;-53
2020/12/03 06:20:53;;;;;;;;;;;;;;;-1.82;100.00;95666.16;5051274;28;20005;-46
2020/12/03 06:23:25;;;;;;;;;;;;;;;-1.94;100.00;95688.34;5083848;28;20025;-45
2020/12/03 06:25:54;;;;;;;;;;;;;;;-2.05;100.00;95684.72;5043994;28;19975;-50
2020/12/03 06:28:27;;;;;;;;;;;;;;;-2.13;100.00;95674.84;5083263;28;19969;-50
2020/12/03 06:30:56;;;;;;;;;;;;;;;-2.13;100.00;95684.31;5041589;28;20577;-50
2020/12/03 06:33:36;;;;;;;;;;;;;;;-2.21;100.00;95677.84;5085693;28;19946;-47
2020/12/03 06:36:04;;;;;;;;;;;;;;;-2.11;100.00;95678.16;5055099;28;19951;-46
2020/12/03 06:38:35;;;;;;;;;;;;;;;-2.05;100.00;95676.97;5086775;28;19960;-49
2020/12/03 06:41:18;;;;;;;;;;;;;;;-2.17;100.00;95679.34;5049047;28;19967;-52
2020/12/03 06:43:46;;;;;;;;;;;;;;;-2.11;100.00;95678.16;5082853;28;20344;-50
2020/12/03 06:46:32;;;;;;;;;;;;;;;-2.02;100.00;95674.22;5051412;28;20061;-49
2020/12/03 06:49:05;;;;;;;;;;;;;;;-2.00;100.00;95675.78;5089096;28;20375;-50
2020/12/03 06:51:43;;;;;;;;;;;;;;;-2.01;100.00;95681.06;5045944;28;20000;-48
2020/12/03 06:54:33;;;;;;;;;;;;;;;-1.97;100.00;95677.38;5084139;28;19945;-49
2020/12/03 06:57:23;;;;;;;;;;;;;;;-2.01;100.00;95686.22;5032972;28;20026;-46
2020/12/03 06:59:54;;;;;;;;;;;;;;;-1.99;100.00;95687.81;5084864;28;19957;-51
2020/12/03 07:02:33;;;;;;;;;;;;;;;-1.98;100.00;95686.03;5054944;28;19957;-46
2020/12/03 07:05:09;;;;;;;;;;;;;;;-1.94;100.00;95683.19;5089084;28;20433;-47
2020/12/03 07:08:03;;;;;;;;;;;;;;;-1.89;100.00;95677.78;5051563;28;19963;-45
2020/12/03 07:10:57;;;;;;;;;;;;;;;-1.80;100.00;95672.06;5039452;28;20076;-49
2020/12/03 07:13:44;;;;;;;;;;;;;;;-1.70;100.00;95673.19;5009222;28;19960;-46
2020/12/03 07:16:15;;;;;;;;;;;;;;;-1.60;100.00;95662.31;5083553;28;20018;-48
2020/12/03 07:18:56;;;;;;;;;;;;;;;-1.50;100.00;95664.28;5054427;28;20096;-47
2020/12/03 07:21:40;;;;;;;;;;;;;;;-1.60;99.15;95659.75;5089365;28;19983;-48
2020/12/03 07:24:08;;;;;;;;;;;;;;;-1.57;99.87;95657.81;5086595;28;20422;-49
2020/12/03 07:27:05;;;;;;;;;;;;;;;-1.47;99.00;95658.09;5086572;28;19997;-47
2020/12/03 07:29:36;;;;;;;;;;;;;;;-1.33;97.90;95650.34;5041615;28;19956;-46
2020/12/03 07:32:03;;;;;;;;;;;;;;;-1.05;96.94;95654.66;5054884;28;20002;-53
2020/12/03 07:34:31;;;;;;;;;;;;;;;-1.04;95.85;95655.50;5088404;28;19960;-47
2020/12/03 07:36:59;;;;;;;;;;;;;;;-0.61;94.66;95645.91;5087997;28;20379;-48
2020/12/03 07:39:28;;;;;;;;;;;;;;;-0.60;92.83;95647.56;5050479;28;19963;-47
2020/12/03 07:41:56;;;;;;;;;;;;;;;-0.68;93.41;95657.56;5089523;28;19941;-49
2020/12/03 07:44:32;;;;;;;;;;;;;;;-0.56;92.55;95659.38;5057026;28;19964;-48
2020/12/03 07:47:14;;;;;;;;;;;;;;;-0.64;92.89;95655.63;5084797;28;20422;-47
2020/12/03 07:49:42;;;;;;;;;;;;;;;-0.49;92.87;95652.06;5056709;28;20034;-51
2020/12/03 07:52:19;;;;;;;;;;;;;;;-0.56;92.38;95646.44;5079963;28;19959;-48
2020/12/03 07:54:47;;;;;;;;;;;;;;;-0.74;94.27;95643.25;5044581;28;20001;-48
2020/12/03 07:57:24;;;;;;;;;;;;;;;-0.83;95.41;95648.97;5086109;28;20022;-50
2020/12/03 07:59:51;;;;;;;;;;;;;;;-0.84;96.37;95649.09;5047662;28;20497;-48
2020/12/03 08:02:36;;;;;;;;;;;;;;;-0.41;96.15;95649.81;5085348;28;19984;-50
2020/12/03 08:05:18;;;;;;;;;;;;;;;0.25;92.42;95647.31;5057739;28;19959;-49
2020/12/03 08:07:45;;;;;;;;;;;;;;;0.56;89.11;95641.72;5081532;28;19959;-48
2020/12/03 08:10:27;;;;;;;;;;;;;;;0.82;87.28;95634.72;5052901;28;19963;-49
2020/12/03 08:13:06;;;;;;;;;;;;;;;0.89;86.44;95637.72;5085896;28;19961;-48
2020/12/03 08:15:34;;;;;;;;;;;;;;;1.01;86.60;95636.06;5030827;28;19954;-47
2020/12/03 08:18:00;;;;;;;;;;;;;;;0.40;87.83;95626.34;5089107;28;19964;-46
2020/12/03 08:20:44;;;;;;;;;;;;;;;0.31;90.04;95631.31;5053196;28;19969;-51
2020/12/03 08:23:13;;;;;;;;;;;;;;;0.88;88.42;95625.69;5083584;28;19957;-50
2020/12/03 08:25:46;;;;;;;;;;;;;;;0.71;89.14;95630.28;5055980;28;20432;-49
2020/12/03 08:28:25;;;;;;;;;;;;;;;0.80;87.83;95631.44;5081840;28;20027;-45
2020/12/03 08:30:53;;;;;;;;;;;;;;;0.89;87.06;95628.19;5050628;28;19960;-46
2020/12/03 08:33:27;;;;;;;;;;;;;;;0.83;88.19;95627.81;5087400;28;19942;-49
2020/12/03 08:35:56;;;;;;;;;;;;;;;1.07;85.96;95626.09;5050793;28;19954;-45
2020/12/03 08:38:24;;;;;;;;;;;;;;;1.29;84.29;95621.97;5087151;28;20061;-48
2020/12/03 08:40:52;;;;;;;;;;;;;;;1.67;83.17;95619.22;5054912;28;19963;-52
2020/12/03 08:43:19;;;;;;;;;;;;;;;1.59;82.34;95605.97;5080931;28;19960;-48
2020/12/03 08:45:53;;;;;;;;;;;;;;;1.39;82.72;95607.41;5054529;28;19958;-50
2020/12/03 08:48:23;;;;;;;;;;;;;;;1.18;84.22;95602.78;5085012;28;19960;-47
2020/12/03 08:50:57;;;;;;;;;;;;;;;1.45;83.50;95596.56;5046772;28;20012;-46
2020/12/03 08:53:25;;;;;;;;;;;;;;;1.70;82.49;95603.41;5085360;28;19958;-47
2020/12/03 08:55:52;;;;;;;;;;;;;;;1.97;79.77;95595.38;5053385;28;20049;-46
2020/12/03 08:58:20;;;;;;;;;;;;;;;1.93;79.12;95595.69;5086244;28;19987;-48
2020/12/03 09:00:47;;;;;;;;;;;;;;;2.07;79.28;95588.56;5055133;28;20447;-45
2020/12/03 09:03:14;;;;;;;;;;;;;;;2.25;78.31;95601.13;5087879;28;19953;-49
2020/12/03 09:05:42;;;;;;;;;;;;;;;2.08;78.04;95587.59;5047650;28;19956;-48
2020/12/03 09:08:10;;;;;;;;;;;;;;;2.12;78.48;95590.78;5080570;28;19972;-48
2020/12/03 09:10:36;;;;;;;;;;;;;;;2.00;78.88;95584.75;5082853;28;20000;-49
2020/12/03 09:13:03;;;;;;;;;;;;;;;1.52;80.68;95592.59;5049344;28;20088;-50
2020/12/03 09:15:30;;;;;;;;;;;;;;;1.46;80.72;95587.84;5081035;28;19948;-48
2020/12/03 09:17:59;;;;;;;;;;;;;;;1.45;80.89;95583.59;5057235;28;19995;-51
2020/12/03 09:20:26;;;;;;;;;;;;;;;1.11;82.13;95580.81;5080188;28;20397;-49
2020/12/03 09:22:56;;;;;;;;;;;;;;;1.22;82.94;95587.00;5054209;28;19982;-47
2020/12/03 09:25:23;;;;;;;;;;;;;;;1.52;81.23;95579.59;5081145;28;19961;-53
2020/12/03 09:27:50;;;;;;;;;;;;;;;1.47;80.85;95578.28;5047798;28;19961;-49
2020/12/03 09:30:19;;;;;;;;;;;;;;;1.40;80.07;95581.31;5083840;28;20258;-54
2020/12/03 09:32:47;;;;;;;;;;;;;;;1.29;81.32;95575.22;5053516;28;19948;-51
2020/12/03 09:35:14;;;;;;;;;;;;;;;1.36;81.84;95576.44;5083939;28;19969;-50
2020/12/03 09:37:41;;;;;;;;;;;;;;;1.01;82.89;95577.19;5055271;28;20813;-50
2020/12/03 09:40:09;;;;;;;;;;;;;;;1.12;83.33;95572.06;5081618;28;19971;-48
2020/12/03 09:42:42;;;;;;;;;;;;;;;1.34;83.24;95576.56;5052527;28;19974;-49
2020/12/03 09:45:12;;;;;;;;;;;;;;;1.66;80.66;95568.22;5082290;28;20037;-49
2020/12/03 09:47:40;;;;;;;;;;;;;;;1.73;80.28;95560.78;5049408;28;20336;-51
2020/12/03 09:50:06;;;;;;;;;;;;;;;1.43;81.70;95555.09;5083178;28;20077;-48
2020/12/03 09:52:34;;;;;;;;;;;;;;;1.26;82.46;95550.31;5047759;28;19965;-47
2020/12/03 09:55:07;;;;;;;;;;;;;;;1.54;82.32;95551.72;5084355;28;19966;-52
2020/12/03 09:57:35;;;;;;;;;;;;;;;1.97;79.99;95545.97;5062499;28;19995;-46
2020/12/03 10:00:03;;;;;;;;;;;;;;;1.85;80.12;95539.06;5074469;28;20002;-51
2020/12/03 10:02:40;;;;;;;;;;;;;;;2.37;77.59;95533.41;5081906;28;19963;-53
2020/12/03 10:05:13;;;;;;;;;;;;;;;2.75;76.32;95527.00;5043489;28;20365;-46
2020/12/03 10:07:56;;;;;;;;;;;;;;;2.89;75.03;95522.47;5082447;28;19960;-48
2020/12/03 10:10:25;;;;;;;;;;;;;;;3.20;73.25;95516.50;5065481;28;20684;-48
2020/12/03 10:13:03;;;;;;;;;;;;;;;3.46;72.64;95510.97;5085706;28;20051;-54
2020/12/03 10:15:34;;;;;;;;;;;;;;;3.63;71.91;95505.19;5055774;28;20549;-49
2020/12/03 10:18:05;;;;;;;;;;;;;;;3.79;70.71;95491.75;5088949;28;20724;-49
2020/12/03 10:20:32;;;;;;;;;;;;;;;3.93;71.08;95493.19;5059020;28;19965;-50
2020/12/03 10:23:05;;;;;;;;;;;;;;;3.87;71.28;95486.72;5086071;28;20012;-51
2020/12/03 10:25:31;;;;;;;;;;;;;;;3.97;71.22;95486.78;5049226;28;19960;-53
2020/12/03 10:28:00;;;;;;;;;;;;;;;4.07;71.46;95472.00;5085599;28;19971;-50
2020/12/03 10:30:35;;;;;;;;;;;;;;;4.01;70.65;95480.34;5048558;28;19951;-52
2020/12/03 10:33:03;;;;;;;;;;;;;;;3.53;72.04;95479.06;5087844;28;19948;-48
2020/12/03 10:35:30;;;;;;;;;;;;;;;3.27;72.15;95473.38;5052299;28;19964;-51
2020/12/03 10:37:58;;;;;;;;;;;;;;;3.44;71.87;95465.94;5072980;28;20055;-50
2020/12/03 10:40:25;;;;;;;;;;;;;;;3.65;72.67;95450.31;5041327;28;19960;-54
2020/12/03 10:43:01;;;;;;;;;;;;;;;3.43;71.46;95457.31;5082044;28;19963;-51
2020/12/03 10:45:29;;;;;;;;;;;;;;;3.75;71.39;95436.41;5053976;28;19951;-52
2020/12/03 10:47:58;;;;;;;;;;;;;;;4.12;70.23;95438.50;5088909;28;19968;-49
2020/12/03 10:50:51;;;;;;;;;;;;;;;3.47;71.77;95422.22;5052540;28;20427;-50
2020/12/03 10:53:20;;;;;;;;;;;;;;;3.94;70.00;95416.59;5068248;28;19966;-51
2020/12/03 10:55:47;;;;;;;;;;;;;;;3.56;69.66;95416.25;5049794;28;20078;-48
2020/12/03 10:58:15;;;;;;;;;;;;;;;3.16;73.60;95417.88;5081210;28;19980;-56
2020/12/03 11:00:42;;;;;;;;;;;;;;;3.20;73.08;95404.50;5052592;28;19970;-49
2020/12/03 11:03:11;;;;;;;;;;;;;;;3.77;71.56;95402.38;5085914;28;19952;-52
2020/12/03 11:05:43;;;;;;;;;;;;;;;3.78;69.72;95388.38;5050040;28;19965;-51
2020/12/03 11:08:10;;;;;;;;;;;;;;;3.97;68.79;95385.06;5074131;28;20061;-54
2020/12/03 11:10:37;;;;;;;;;;;;;;;3.93;68.76;95381.88;5051179;28;19996;-52
2020/12/03 11:13:06;;;;;;;;;;;;;;;3.51;70.14;95378.47;5083746;28;19963;-48
2020/12/03 11:15:33;;;;;;;;;;;;;;;3.61;71.60;95378.53;5082696;28;19940;-58
2020/12/03 11:18:03;;;;;;;;;;;;;;;3.78;70.57;95370.13;5071419;28;20053;-50
2020/12/03 11:20:51;;;;;;;;;;;;;;;3.68;71.21;95362.28;5041346;28;19970;-50
2020/12/03 11:23:21;;;;;;;;;;;;;;;3.52;71.08;95359.31;5066177;28;19999;-52
2020/12/03 11:25:50;;;;;;;;;;;;;;;3.22;70.56;95347.88;5065803;28;19973;-47
2020/12/03 11:28:27;;;;;;;;;;;;;;;3.54;69.72;95349.56;5050772;28;19970;-50
2020/12/03 11:30:57;;;;;;;;;;;;;;;3.13;70.72;95345.19;5077471;28;20007;-51
2020/12/03 11:33:26;;;;;;;;;;;;;;;2.80;71.63;95345.22;5031639;28;19948;-52
2020/12/03 11:36:01;;;;;;;;;;;;;;;2.75;72.85;95330.94;5086242;28;20002;-52
2020/12/03 11:38:31;;;;;;;;;;;;;;;2.70;72.35;95333.09;5047650;28;21687;-47
2020/12/03 11:40:59;;;;;;;;;;;;;;;2.93;72.54;95336.44;5078637;28;19975;-49
2020/12/03 11:43:41;;;;;;;;;;;;;;;3.10;69.80;95330.66;5050818;28;19956;-49
2020/12/03 11:48:55;;;;;;;;;;;;;;;2.42;74.04;95331.88;5036412;28;19986;-52
2020/12/03 11:51:26;;;;;;;;;;;;;;;2.64;73.94;95324.00;5055246;28;20393;-49
2020/12/03 11:53:55;;;;;;;;;;;;;;;2.79;71.75;95320.16;5038864;28;20406;-52
2020/12/03 11:56:22;;;;;;;;;;;;;;;2.88;71.38;95318.56;5070052;28;19957;-48
2020/12/03 11:58:48;;;;;;;;;;;;;;;3.00;71.66;95319.34;5045670;28;19975;-52
2020/12/03 12:01:19;;;;;;;;;;;;;;;3.06;71.88;95316.22;5077277;28;19969;-50
2020/12/03 12:03:47;;;;;;;;;;;;;;;3.06;70.90;95306.66;5051537;28;19983;-51
2020/12/03 12:06:21;;;;;;;;;;;;;;;2.83;71.13;95305.13;5085014;28;20079;-48
2020/12/03 12:08:53;;;;;;;;;;;;;;;2.88;70.55;95302.94;5020420;28;20023;-47
2020/12/03 12:11:23;;;;;;;;;;;;;;;3.05;72.29;95302.38;5071427;28;20470;-51
2020/12/03 12:13:52;;;;;;;;;;;;;;;3.23;70.37;95301.81;5029676;28;19969;-50
2020/12/03 12:16:20;;;;;;;;;;;;;;;3.28;70.81;95303.06;5060023;28;19977;-48
2020/12/03 12:18:47;;;;;;;;;;;;;;;3.36;70.13;95299.81;5033262;28;20413;-52
2020/12/03 12:21:14;;;;;;;;;;;;;;;2.99;70.20;95302.88;5064969;28;19960;-53
2020/12/03 12:23:41;;;;;;;;;;;;;;;2.97;70.13;95301.38;5034855;28;20437;-52
2020/12/03 12:26:08;;;;;;;;;;;;;;;2.63;71.29;95306.75;5062901;28;19965;-49
2020/12/03 12:28:35;;;;;;;;;;;;;;;2.70;70.58;95296.66;5032805;28;19959;-48
2020/12/03 12:31:02;;;;;;;;;;;;;;;2.61;70.65;95291.25;5064694;28;20505;-48
2020/12/03 12:33:29;;;;;;;;;;;;;;;2.67;70.86;95291.69;5063238;28;19994;-49
2020/12/03 12:35:56;;;;;;;;;;;;;;;2.41;72.85;95293.78;5026546;28;20369;-47
2020/12/03 12:38:23;;;;;;;;;;;;;;;2.59;72.56;95289.72;5060629;28;20441;-47
2020/12/03 12:40:50;;;;;;;;;;;;;;;2.68;72.20;95288.94;5037870;28;20006;-47
2020/12/03 12:43:16;;;;;;;;;;;;;;;2.54;72.17;95290.06;5070953;28;20057;-51
2020/12/03 12:45:43;;;;;;;;;;;;;;;2.35;72.35;95284.72;5053633;28;20147;-56
2020/12/03 12:49:49;;;;;;;12.82;7.18;;;;;;;12.28;87.46;95242.84;5054416;27;20443;-15
2020/12/03 12:52:16;;;;;;;13.75;6.55;;;;;;;15.40;66.13;95234.19;5052203;28;20044;-16
2020/12/03 12:54:44;;;;;;;10.52;4.82;;;;;;;17.40;56.99;95237.75;5016112;28;20952;-13
2020/12/03 12:57:17;;;;;;;10.07;4.50;;;;;;;18.69;51.97;95224.53;5068918;28;20033;-14
2020/12/03 12:59:45;;;;;;;8.95;4.88;;;;;;;19.56;48.97;95229.47;5031350;28;20036;-13
2020/12/03 13:02:13;;;;;;;8.77;5.07;;;;;;;20.12;46.96;95225.41;5063598;28;20047;-13
2020/12/03 13:04:43;;;;;;;8.30;5.00;;;;;;;20.54;46.17;95220.72;5066064;28;20063;-15